Time;durP1;ratioP1;P1;durP2;ratioP2;P2;SDS_P1;SDS_P2;PMS_P1;PMS_P2;Temp;Humidity;BMP_temperature;BMP_pressure;BME280_temperature;BME280_humidity;BME280_pressure;Samples;Min_cycle;Max_cycle;Signal;HPM_P1;HPM_P2
2021/12/06 00:01:57;;;;;;;149.85;58.55;;;;;;;1.80;77.96;97551.94;5039470;28;20033;-64
2021/12/06 00:04:27;;;;;;;133.40;53.60;;;;;;;1.83;77.38;97546.81;5038162;28;20436;-65
2021/12/06 00:06:56;;;;;;;138.35;54.45;;;;;;;1.90;78.02;97552.81;5039827;28;20045;-64
2021/12/06 00:09:24;;;;;;;131.70;52.27;;;;;;;1.97;77.82;97549.84;5039051;28;20021;-65
2021/12/06 00:11:56;;;;;;;116.60;44.75;;;;;;;2.03;78.07;97550.72;5040191;28;20137;-65
2021/12/06 00:14:28;;;;;;;114.72;46.40;;;;;;;2.03;78.12;97556.13;5039259;28;20025;-65
2021/12/06 00:16:56;;;;;;;105.63;44.92;;;;;;;2.02;78.38;97558.00;5039688;28;20057;-65
2021/12/06 00:19:22;;;;;;;85.80;35.45;;;;;;;2.07;78.25;97552.63;5038190;28;20478;-65
2021/12/06 00:21:47;;;;;;;103.05;41.08;;;;;;;2.03;77.96;97556.91;5037379;28;20032;-66
2021/12/06 00:24:12;;;;;;;100.43;41.78;;;;;;;2.04;77.57;97547.72;5034276;28;20420;-65
2021/12/06 00:26:38;;;;;;;101.57;41.33;;;;;;;2.02;78.25;97546.38;5043371;28;20370;-66
2021/12/06 00:29:03;;;;;;;88.53;35.80;;;;;;;2.03;78.40;97550.72;5038494;28;20367;-66
2021/12/06 00:31:32;;;;;;;94.95;39.55;;;;;;;1.95;78.44;97546.59;5039511;28;20029;-65
2021/12/06 00:34:02;;;;;;;92.40;38.22;;;;;;;1.90;78.31;97549.28;5035814;28;20120;-65
2021/12/06 00:36:30;;;;;;;91.03;39.67;;;;;;;1.84;77.96;97547.59;5039767;28;20033;-65
2021/12/06 00:38:56;;;;;;;85.07;38.08;;;;;;;1.78;77.69;97546.78;5037763;28;20021;-66
2021/12/06 00:41:22;;;;;;;78.22;32.67;;;;;;;1.81;77.85;97548.97;5041627;28;20029;-65
2021/12/06 00:43:48;;;;;;;89.47;38.75;;;;;;;1.80;78.25;97552.75;5037422;28;20044;-65
2021/12/06 00:46:13;;;;;;;82.43;35.35;;;;;;;1.81;78.10;97559.78;5042163;28;20037;-64
2021/12/06 00:48:39;;;;;;;78.72;34.03;;;;;;;1.74;78.64;97559.19;5037504;28;20030;-64
2021/12/06 00:51:04;;;;;;;88.03;36.15;;;;;;;1.65;78.56;97569.69;5036640;28;20025;-64
2021/12/06 00:53:30;;;;;;;92.03;39.53;;;;;;;1.67;78.67;97564.81;5040341;28;20025;-64
2021/12/06 00:55:56;;;;;;;86.82;35.92;;;;;;;1.66;78.30;97571.31;5039801;28;20542;-64
2021/12/06 00:58:21;;;;;;;111.35;39.33;;;;;;;1.60;78.90;97570.47;5044986;28;20029;-64
2021/12/06 01:00:51;;;;;;;92.30;38.90;;;;;;;1.59;79.19;97574.25;5043139;28;20481;-64
2021/12/06 01:03:22;;;;;;;85.55;35.00;;;;;;;1.58;79.00;97571.78;5043077;28;20033;-64
2021/12/06 01:05:48;;;;;;;84.97;34.38;;;;;;;1.55;78.95;97566.91;5039602;28;20108;-64
2021/12/06 01:08:14;;;;;;;80.68;33.30;;;;;;;1.55;79.24;97575.00;5042099;28;20501;-64
2021/12/06 01:10:40;;;;;;;74.75;31.80;;;;;;;1.53;79.50;97577.16;5042766;28;20044;-64
2021/12/06 01:13:06;;;;;;;77.28;32.22;;;;;;;1.46;78.61;97580.88;5048196;28;20515;-64
2021/12/06 01:15:33;;;;;;;70.70;29.73;;;;;;;1.48;79.36;97576.03;5049051;28;20067;-64
2021/12/06 01:18:01;;;;;;;71.85;29.75;;;;;;;1.43;78.87;97584.09;5047105;28;20115;-64
2021/12/06 01:20:31;;;;;;;72.65;30.88;;;;;;;1.42;79.16;97577.09;5046269;28;20401;-64
2021/12/06 01:23:07;;;;;;;69.47;29.10;;;;;;;1.43;79.04;97578.69;5043832;28;20040;-64
2021/12/06 01:41:18;;;;;;;59.15;27.15;;;;;;;1.14;79.16;97570.09;5043950;28;20508;-64
2021/12/06 01:44:03;;;;;;;67.93;29.15;;;;;;;1.13;79.79;97563.88;5042922;28;20461;-64
2021/12/06 01:46:31;;;;;;;63.45;27.75;;;;;;;1.13;79.69;97568.47;5048272;28;20854;-64
2021/12/06 01:48:57;;;;;;;70.30;29.23;;;;;;;1.10;79.76;97575.19;5045039;28;20076;-65
2021/12/06 01:51:23;;;;;;;64.65;28.92;;;;;;;1.09;79.98;97570.06;5046571;28;20474;-65
2021/12/06 01:53:48;;;;;;;54.08;24.65;;;;;;;1.08;79.58;97563.81;5045515;28;20025;-64
2021/12/06 01:56:14;;;;;;;54.65;24.98;;;;;;;1.11;80.03;97571.41;5041996;28;20033;-64
2021/12/06 01:58:39;;;;;;;60.38;27.38;;;;;;;1.12;79.70;97572.25;5042754;28;20032;-64
2021/12/06 02:01:05;;;;;;;55.50;24.95;;;;;;;1.15;80.08;97582.53;5042914;28;20052;-65
2021/12/06 02:03:30;;;;;;;58.70;25.80;;;;;;;1.21;80.08;97581.50;5049348;28;20490;-64
2021/12/06 02:05:55;;;;;;;56.15;25.77;;;;;;;1.27;79.89;97583.16;5043252;28;20481;-64
2021/12/06 02:08:21;;;;;;;49.45;21.85;;;;;;;1.32;80.20;97577.81;5042580;28;20026;-64
2021/12/06 02:10:48;;;;;;;58.15;24.80;;;;;;;1.30;79.38;97577.25;5039369;28;20432;-63
2021/12/06 02:13:13;;;;;;;46.00;20.55;;;;;;;1.30;80.46;97571.84;5040826;28;20024;-64
2021/12/06 02:15:50;;;;;;;53.67;22.08;;;;;;;1.34;80.35;97578.38;5042812;28;20449;-64
2021/12/06 02:18:42;;;;;;;43.80;18.77;;;;;;;1.33;79.55;97574.03;5038800;28;20115;-64
2021/12/06 02:21:18;;;;;;;43.20;18.73;;;;;;;1.25;79.21;97566.41;5043285;28;20040;-64
2021/12/06 02:23:45;;;;;;;38.67;17.67;;;;;;;1.21;79.79;97561.78;5039651;28;20087;-64
2021/12/06 02:26:11;;;;;;;34.72;14.75;;;;;;;1.17;79.21;97559.59;5038149;28;20067;-64
2021/12/06 02:28:37;;;;;;;30.70;13.90;;;;;;;1.13;79.99;97565.78;5041642;28;20517;-64
2021/12/06 02:31:03;;;;;;;31.58;15.85;;;;;;;1.06;79.23;97578.66;5040290;28;20017;-64
2021/12/06 02:33:28;;;;;;;32.58;14.90;;;;;;;1.01;79.44;97582.94;5040750;28;20049;-64
2021/12/06 02:35:54;;;;;;;36.72;16.40;;;;;;;0.99;79.67;97587.00;5040563;28;20094;-64
2021/12/06 02:38:20;;;;;;;23.33;11.90;;;;;;;1.01;79.83;97593.75;5042528;28;20061;-64
2021/12/06 02:40:45;;;;;;;29.65;13.90;;;;;;;0.96;79.67;97601.78;5043234;28;20028;-64
2021/12/06 02:43:12;;;;;;;30.70;13.38;;;;;;;0.94;79.84;97603.94;5045291;28;20052;-64
2021/12/06 02:45:38;;;;;;;34.50;14.98;;;;;;;0.91;79.37;97620.63;5043743;28;20013;-64
2021/12/06 02:48:07;;;;;;;41.60;17.80;;;;;;;0.88;79.63;97624.69;5043379;28;20073;-64
2021/12/06 02:50:37;;;;;;;28.92;13.52;;;;;;;0.90;79.99;97629.81;5041008;28;20022;-64
2021/12/06 02:53:02;;;;;;;;;;;;;;;0.93;80.08;97634.69;5043670;28;20028;-64
2021/12/06 02:57:57;;;;;;;32.08;13.40;;;;;;;0.95;79.38;97634.47;5041170;28;20359;-64
2021/12/06 03:00:24;;;;;;;30.70;13.32;;;;;;;0.99;79.97;97632.88;5043379;28;20020;-65
2021/12/06 03:02:49;;;;;;;27.42;11.98;;;;;;;1.01;79.45;97638.84;5044770;28;20025;-64
2021/12/06 03:05:15;;;;;;;28.83;13.27;;;;;;;1.03;79.61;97625.88;5043054;28;20036;-65
2021/12/06 03:07:41;;;;;;;26.67;11.95;;;;;;;1.04;79.22;97619.41;5038279;28;20025;-64
2021/12/06 03:10:09;;;;;;;27.08;11.40;;;;;;;1.01;78.83;97612.66;5039717;28;20042;-64
2021/12/06 03:12:35;;;;;;;28.67;13.43;;;;;;;0.94;79.67;97614.72;5039938;28;20048;-64
2021/12/06 03:15:05;;;;;;;31.73;14.05;;;;;;;0.92;79.13;97611.47;5040910;28;20036;-64
2021/12/06 03:17:32;;;;;;;32.65;14.57;;;;;;;0.88;79.62;97608.47;5042542;28;20047;-65
2021/12/06 03:20:00;;;;;;;29.50;13.55;;;;;;;0.85;79.11;97614.38;5041200;28;20017;-64
2021/12/06 03:22:26;;;;;;;28.17;13.38;;;;;;;0.83;79.17;97613.81;5044543;28;20097;-64
2021/12/06 03:24:52;;;;;;;28.88;13.68;;;;;;;0.77;79.15;97609.44;5045481;28;20097;-64
2021/12/06 03:27:18;;;;;;;26.73;11.77;;;;;;;0.76;79.65;97602.41;5044975;28;20030;-65
2021/12/06 03:29:44;;;;;;;27.13;12.30;;;;;;;0.70;79.69;97606.94;5032895;28;20470;-65
2021/12/06 03:32:10;;;;;;;27.65;11.98;;;;;;;0.63;79.60;97609.00;5046104;28;20031;-65
2021/12/06 03:34:35;;;;;;;23.10;11.23;;;;;;;0.60;79.72;97623.00;5045328;28;20116;-65
2021/12/06 03:37:04;;;;;;;27.45;12.77;;;;;;;0.54;79.42;97605.94;5041229;28;20045;-64
2021/12/06 03:39:34;;;;;;;28.85;13.07;;;;;;;0.51;79.75;97605.63;5044706;28;20035;-64
2021/12/06 03:42:03;;;;;;;28.15;13.00;;;;;;;0.51;79.63;97611.84;5043817;28;20056;-64
2021/12/06 03:44:29;;;;;;;31.40;13.60;;;;;;;0.45;79.85;97615.53;5043229;28;20512;-64
2021/12/06 03:46:59;;;;;;;32.55;14.18;;;;;;;0.42;80.03;97621.44;5044509;28;20044;-64
2021/12/06 03:49:24;;;;;;;36.15;14.82;;;;;;;0.33;79.75;97622.94;5046558;28;20063;-64
2021/12/06 03:51:50;;;;;;;36.55;15.23;;;;;;;0.26;80.03;97620.44;5045868;28;20029;-65
2021/12/06 03:54:22;;;;;;;35.78;14.82;;;;;;;0.21;80.40;97628.44;5045918;28;20020;-65
2021/12/06 03:56:49;;;;;;;35.65;15.48;;;;;;;0.14;80.04;97636.72;5044474;28;20033;-64
2021/12/06 03:59:15;;;;;;;34.97;14.63;;;;;;;0.12;80.55;97644.25;5037137;28;20025;-64
2021/12/06 04:01:41;;;;;;;36.95;15.55;;;;;;;0.14;80.88;97642.13;5035070;28;20021;-64
2021/12/06 04:04:08;;;;;;;35.70;15.40;;;;;;;0.18;80.34;97648.66;5040797;28;20017;-64
2021/12/06 04:06:35;;;;;;;40.65;17.17;;;;;;;0.17;81.02;97649.72;5041422;28;20024;-64
2021/12/06 04:09:02;;;;;;;36.30;15.60;;;;;;;0.14;80.87;97653.72;5040037;28;20017;-64
2021/12/06 04:11:27;;;;;;;36.75;13.50;;;;;;;0.13;80.41;97651.28;5042073;28;20026;-64
2021/12/06 04:13:53;;;;;;;39.85;15.55;;;;;;;0.11;80.84;97656.09;5037101;28;20478;-64
2021/12/06 04:16:18;;;;;;;36.20;13.93;;;;;;;0.11;81.06;97656.09;5034823;28;20072;-64
2021/12/06 04:18:46;;;;;;;56.45;21.13;;;;;;;0.05;80.89;97651.69;5040396;28;20066;-64
2021/12/06 04:21:12;;;;;;;40.35;14.88;;;;;;;-0.04;81.33;97654.00;5039983;28;20036;-64
2021/12/06 04:23:39;;;;;;;41.00;14.85;;;;;;;-0.08;81.48;97647.47;5041454;28;20377;-64
2021/12/06 04:26:06;;;;;;;44.22;16.33;;;;;;;-0.07;81.62;97651.81;5040780;28;20116;-64
2021/12/06 04:28:34;;;;;;;40.20;15.57;;;;;;;-0.06;81.18;97650.72;5038303;28;20482;-64
2021/12/06 04:31:01;;;;;;;40.83;14.30;;;;;;;-0.08;81.45;97652.84;5037629;28;20036;-64
2021/12/06 04:33:27;;;;;;;38.83;15.27;;;;;;;-0.10;81.98;97646.91;5039372;28;20041;-65
2021/12/06 04:35:52;;;;;;;38.40;15.05;;;;;;;-0.09;81.90;97638.56;5042257;28;20030;-65
2021/12/06 04:38:18;;;;;;;37.30;15.13;;;;;;;-0.09;81.71;97633.16;5039585;28;20045;-65
2021/12/06 04:40:44;;;;;;;36.15;15.40;;;;;;;-0.08;81.46;97634.78;5037453;28;20091;-64
2021/12/06 04:43:10;;;;;;;34.35;15.27;;;;;;;-0.07;82.11;97635.63;5038542;28;20028;-65
2021/12/06 04:45:36;;;;;;;37.50;14.57;;;;;;;-0.07;82.12;97636.44;5039904;28;20064;-64
2021/12/06 04:48:03;;;;;;;48.33;19.42;;;;;;;-0.05;81.74;97639.69;5039511;28;20474;-64
2021/12/06 04:50:32;;;;;;;41.50;15.50;;;;;;;-0.03;81.71;97651.03;5039607;28;20500;-64
2021/12/06 04:53:02;;;;;;;33.00;13.80;;;;;;;0.01;81.33;97664.84;5038144;28;20444;-65
2021/12/06 04:55:50;;;;;;;29.48;13.35;;;;;;;-0.01;81.66;97664.28;5040403;28;20079;-64
2021/12/06 04:58:20;;;;;;;31.02;13.13;;;;;;;-0.02;81.42;97660.75;5031993;28;20393;-65
2021/12/06 05:00:52;;;;;;;31.90;12.98;;;;;;;-0.01;82.17;97659.69;5042046;28;20381;-64
2021/12/06 05:03:17;;;;;;;29.15;11.77;;;;;;;0.01;81.60;97664.84;5037855;28;20437;-64
2021/12/06 05:05:47;;;;;;;30.08;13.38;;;;;;;-0.01;81.55;97673.19;5039463;28;20030;-64
2021/12/06 05:08:19;;;;;;;28.98;14.45;;;;;;;-0.02;81.19;97679.63;5046891;28;20033;-64
2021/12/06 05:10:45;;;;;;;30.13;12.57;;;;;;;0.02;81.44;97690.72;5038940;28;20021;-64
2021/12/06 05:13:11;;;;;;;30.58;12.57;;;;;;;0.06;81.44;97713.44;5043599;28;20572;-64
2021/12/06 05:15:36;;;;;;;26.48;12.85;;;;;;;0.08;81.57;97710.53;5035219;28;20124;-63
2021/12/06 05:18:03;;;;;;;25.73;10.98;;;;;;;0.10;81.51;97719.97;5042700;28;20032;-64
2021/12/06 05:20:29;;;;;;;26.13;11.90;;;;;;;0.12;81.83;97719.75;5050709;28;20036;-64
2021/12/06 05:22:55;;;;;;;27.08;12.80;;;;;;;0.16;81.52;97722.75;5032830;28;20033;-64
2021/12/06 05:25:23;;;;;;;29.55;13.32;;;;;;;0.20;81.54;97707.72;5043370;28;20040;-64
2021/12/06 05:27:49;;;;;;;26.55;12.73;;;;;;;0.16;81.00;97687.69;5048370;28;20041;-64
2021/12/06 05:30:16;;;;;;;32.92;14.35;;;;;;;0.07;80.90;97688.13;5032692;28;20048;-64
2021/12/06 05:32:43;;;;;;;34.60;14.88;;;;;;;0.01;81.17;97696.38;5036131;28;20045;-64
2021/12/06 05:35:09;;;;;;;27.80;12.88;;;;;;;0.02;81.00;97706.91;5042229;28;20289;-63
2021/12/06 05:37:39;;;;;;;28.15;13.35;;;;;;;0.07;81.06;97712.38;5049695;28;20044;-64
2021/12/06 05:40:08;;;;;;;26.90;12.93;;;;;;;0.10;81.44;97716.47;5044759;28;20647;-64
2021/12/06 05:42:33;;;;;;;28.58;13.25;;;;;;;0.08;81.14;97716.72;5032178;28;20025;-64
2021/12/06 05:44:58;;;;;;;31.30;13.52;;;;;;;0.03;81.23;97708.53;5035374;28;20033;-64
2021/12/06 05:47:24;;;;;;;29.77;13.77;;;;;;;0.01;80.83;97713.38;5033193;28;20026;-64
2021/12/06 05:49:49;;;;;;;31.45;14.60;;;;;;;0.07;81.46;97725.06;5045744;28;20029;-64
2021/12/06 05:52:15;;;;;;;33.38;14.15;;;;;;;0.07;81.11;97727.75;5052026;28;20104;-64
2021/12/06 05:54:41;;;;;;;27.63;12.57;;;;;;;0.11;80.89;97726.22;5051474;28;20025;-65
2021/12/06 05:57:09;;;;;;;30.63;14.88;;;;;;;0.08;81.10;97727.50;5046679;28;20064;-64
2021/12/06 05:59:35;;;;;;;35.88;14.48;;;;;;;0.12;81.20;97741.31;5046197;28;20155;-64
2021/12/06 06:02:01;;;;;;;32.63;14.75;;;;;;;0.14;80.95;97749.97;5036819;28;20100;-65
2021/12/06 06:04:26;;;;;;;32.00;14.00;;;;;;;0.13;80.93;97749.16;5031989;28;20025;-64
2021/12/06 06:06:52;;;;;;;32.35;14.25;;;;;;;0.10;80.81;97757.72;5034491;28;20013;-64
2021/12/06 06:09:19;;;;;;;36.28;15.63;;;;;;;0.09;81.12;97745.31;5040903;28;20104;-64
2021/12/06 06:11:44;;;;;;;34.08;14.07;;;;;;;0.10;80.76;97751.53;5035943;28;20108;-64
2021/12/06 06:14:10;;;;;;;35.53;14.82;;;;;;;0.05;81.14;97756.84;5044707;28;20143;-64
2021/12/06 06:16:46;;;;;;;38.78;16.30;;;;;;;-0.01;81.10;97761.34;5038981;28;20037;-63
2021/12/06 06:19:12;;;;;;;38.67;15.27;;;;;;;-0.07;81.18;97765.81;5047088;28;20033;-64
2021/12/06 06:21:38;;;;;;;34.08;14.77;;;;;;;-0.11;81.19;97767.38;5040521;28;20036;-64
2021/12/06 06:24:04;;;;;;;32.85;13.77;;;;;;;-0.12;81.50;97754.94;5040736;28;20029;-64
2021/12/06 06:26:29;;;;;;;35.92;14.95;;;;;;;-0.12;81.36;97767.63;5036202;28;20064;-64
2021/12/06 06:28:55;;;;;;;39.22;15.80;;;;;;;-0.16;81.71;97761.88;5036689;28;20064;-65
2021/12/06 06:31:20;;;;;;;38.08;16.20;;;;;;;-0.16;81.41;97769.97;5038237;28;20485;-65
2021/12/06 06:33:46;;;;;;;29.70;13.48;;;;;;;-0.14;81.54;97767.03;5041074;28;20045;-65
2021/12/06 06:36:12;;;;;;;35.45;15.00;;;;;;;-0.14;81.51;97764.34;5034538;28;20486;-65
2021/12/06 06:38:37;;;;;;;27.45;12.30;;;;;;;-0.09;82.37;97767.94;5043552;28;20021;-67
2021/12/06 06:41:03;;;;;;;32.30;15.45;;;;;;;-0.07;81.37;97773.09;5038646;28;20481;-66
2021/12/06 06:43:29;;;;;;;32.90;15.18;;;;;;;-0.08;81.72;97768.78;5039759;28;20025;-65
2021/12/06 06:45:54;;;;;;;48.28;17.83;;;;;;;-0.07;81.70;97770.41;5040313;28;20076;-65
2021/12/06 06:48:20;;;;;;;30.90;13.95;;;;;;;-0.05;81.91;97777.19;5042150;28;20457;-64
2021/12/06 06:50:46;;;;;;;46.35;21.80;;;;;;;-0.04;81.56;97773.41;5042344;28;20545;-67
2021/12/06 06:53:11;;;;;;;41.42;18.48;;;;;;;0.03;81.96;97769.75;5039195;28;20034;-67
2021/12/06 06:55:37;;;;;;;38.25;16.80;;;;;;;0.07;81.54;97776.28;5041718;28;20037;-67
2021/12/06 06:58:02;;;;;;;58.67;29.38;;;;;;;0.10;81.63;97783.88;5039822;28;20028;-68
2021/12/06 07:00:35;;;;;;;50.80;20.65;;;;;;;0.09;81.45;97787.66;5040243;28;20082;-67
2021/12/06 07:03:03;;;;;;;55.60;24.20;;;;;;;0.05;81.70;97799.97;5050705;28;20374;-68
2021/12/06 07:05:29;;;;;;;56.72;23.13;;;;;;;0.07;81.29;97800.56;5050605;28;20029;-68
2021/12/06 07:07:56;;;;;;;50.55;21.63;;;;;;;0.13;81.56;97807.69;5050153;28;20071;-67
2021/12/06 07:10:23;;;;;;;69.13;24.42;;;;;;;0.12;81.05;97812.22;5051078;28;20025;-68
2021/12/06 07:12:50;;;;;;;67.65;24.52;;;;;;;0.13;81.35;97816.56;5050662;28;20029;-68
2021/12/06 07:15:21;;;;;;;82.10;28.08;;;;;;;0.13;81.57;97826.56;5048863;28;20435;-68
2021/12/06 07:17:47;;;;;;;50.92;22.40;;;;;;;0.13;81.18;97824.66;5049960;28;20037;-67
2021/12/06 07:20:14;;;;;;;85.95;30.73;;;;;;;0.16;81.07;97819.84;5050269;28;20021;-68
2021/12/06 07:22:41;;;;;;;61.05;26.60;;;;;;;0.17;81.23;97827.69;5050172;28;20547;-67
2021/12/06 07:25:08;;;;;;;56.45;25.90;;;;;;;0.21;81.54;97820.72;5050445;28;20680;-68
2021/12/06 07:27:34;;;;;;;64.05;22.92;;;;;;;0.23;81.29;97825.91;5050230;28;20024;-67
2021/12/06 07:30:00;;;;;;;51.70;20.88;;;;;;;0.28;80.76;97828.69;5049633;28;20043;-68
2021/12/06 07:32:26;;;;;;;38.15;18.75;;;;;;;0.27;80.94;97827.84;5050075;28;20028;-67
2021/12/06 07:34:51;;;;;;;53.85;20.85;;;;;;;0.25;80.93;97821.06;5049958;28;20033;-68
2021/12/06 07:37:18;;;;;;;43.45;20.35;;;;;;;0.22;81.04;97819.66;5050082;28;20057;-68
2021/12/06 07:39:44;;;;;;;30.88;16.40;;;;;;;0.24;80.73;97814.84;5049829;28;20469;-68
2021/12/06 07:42:12;;;;;;;49.20;22.17;;;;;;;0.25;81.54;97832.66;5050091;28;20033;-67
2021/12/06 07:44:40;;;;;;;66.35;26.30;;;;;;;0.26;81.07;97831.59;5048924;28;20024;-67
2021/12/06 07:47:07;;;;;;;39.28;18.33;;;;;;;0.28;80.78;97828.69;5030054;28;20091;-67
2021/12/06 07:49:32;;;;;;;36.70;20.58;;;;;;;0.27;81.01;97814.38;5029842;28;20109;-67
2021/12/06 07:51:58;;;;;;;35.78;20.02;;;;;;;0.27;80.28;97811.66;5028359;28;20116;-68
2021/12/06 07:54:23;;;;;;;36.45;19.67;;;;;;;0.28;81.08;97799.00;5029994;28;20044;-67
2021/12/06 07:56:49;;;;;;;35.30;20.02;;;;;;;0.28;80.54;97807.91;5029896;28;20033;-68
2021/12/06 07:59:14;;;;;;;40.70;20.83;;;;;;;0.30;80.77;97810.38;5029647;28;20078;-68
2021/12/06 08:01:40;;;;;;;35.78;19.02;;;;;;;0.33;80.77;97819.84;5029819;28;20021;-68
2021/12/06 08:04:07;;;;;;;34.35;17.67;;;;;;;0.34;80.75;97818.78;5029851;28;20052;-67
2021/12/06 08:06:33;;;;;;;39.33;19.77;;;;;;;0.38;80.45;97819.94;5029635;28;20025;-68
2021/12/06 08:08:59;;;;;;;33.80;16.90;;;;;;;0.39;80.95;97821.56;5049687;28;20017;-68
2021/12/06 08:11:25;;;;;;;37.97;20.83;;;;;;;0.37;80.92;97821.00;5048422;28;20036;-68
2021/12/06 08:13:56;;;;;;;36.70;17.58;;;;;;;0.33;79.95;97830.63;5049533;28;20036;-68
2021/12/06 08:16:43;;;;;;;35.80;16.83;;;;;;;0.31;80.11;97832.75;5049190;28;20036;-68
2021/12/06 08:19:10;;;;;;;40.15;19.20;;;;;;;0.29;80.64;97838.41;5030153;28;20028;-67
2021/12/06 08:21:37;;;;;;;28.83;15.93;;;;;;;0.30;80.03;97837.34;5032508;28;20379;-68
2021/12/06 08:24:04;;;;;;;32.20;17.10;;;;;;;0.31;80.27;97844.38;5033843;28;20037;-68
2021/12/06 08:26:33;;;;;;;35.20;16.88;;;;;;;0.34;80.83;97845.75;5052911;28;20024;-67
2021/12/06 08:29:05;;;;;;;32.33;15.57;;;;;;;0.33;80.62;97849.50;5053610;28;20025;-68
2021/12/06 08:31:31;;;;;;;32.05;17.17;;;;;;;0.31;80.66;97857.88;5068231;28;20079;-68
2021/12/06 08:33:57;;;;;;;33.80;18.08;;;;;;;0.29;80.49;97860.78;5052950;28;20100;-68
2021/12/06 08:36:24;;;;;;;31.67;15.77;;;;;;;0.26;80.48;97863.16;5053187;28;20032;-68
2021/12/06 08:38:49;;;;;;;31.48;16.17;;;;;;;0.26;80.42;97869.38;5052770;28;20029;-68
2021/12/06 08:41:21;;;;;;;32.90;15.63;;;;;;;0.26;80.81;97869.38;5052929;28;20082;-67
2021/12/06 08:43:48;;;;;;;34.55;18.77;;;;;;;0.25;80.43;97866.94;5052934;28;20116;-68
2021/12/06 08:46:19;;;;;;;36.22;17.92;;;;;;;0.28;80.57;97866.44;5036517;28;20022;-69
2021/12/06 08:48:47;;;;;;;45.95;22.08;;;;;;;0.31;80.72;97862.44;5031547;28;20029;-69
2021/12/06 08:51:19;;;;;;;33.70;16.30;;;;;;;0.29;80.49;97866.19;5031609;28;20043;-69
2021/12/06 08:53:46;;;;;;;47.03;20.40;;;;;;;0.27;80.59;97876.41;5032886;28;20108;-68
2021/12/06 08:56:12;;;;;;;38.22;17.67;;;;;;;0.32;80.35;97877.56;5034603;28;20071;-69
2021/12/06 08:58:39;;;;;;;36.03;16.95;;;;;;;0.33;80.24;97884.59;5052491;28;20037;-68
2021/12/06 09:01:06;;;;;;;35.70;18.77;;;;;;;0.32;80.59;97874.84;5052580;28;20541;-69
2021/12/06 09:03:31;;;;;;;48.90;22.98;;;;;;;0.34;80.35;97891.63;5052720;28;20082;-69
2021/12/06 09:05:57;;;;;;;32.47;16.38;;;;;;;0.30;79.98;97885.91;5052478;28;20436;-68
2021/12/06 09:08:24;;;;;;;38.13;17.83;;;;;;;0.26;80.37;97893.63;5052309;28;20043;-68
2021/12/06 09:10:51;;;;;;;34.97;18.73;;;;;;;0.26;80.73;97907.13;5052808;28;20033;-68
2021/12/06 09:13:19;;;;;;;36.63;19.02;;;;;;;0.26;80.25;97900.94;5052505;28;20020;-68
2021/12/06 09:15:45;;;;;;;33.13;17.67;;;;;;;0.25;79.95;97900.09;5052135;28;20056;-68
2021/12/06 09:18:10;;;;;;;60.70;24.48;;;;;;;0.28;80.51;97904.19;5051832;28;20465;-69
2021/12/06 09:20:41;;;;;;;44.72;18.10;;;;;;;0.29;80.40;97901.25;5052629;28;20020;-67
2021/12/06 09:23:07;;;;;;;46.85;21.20;;;;;;;0.31;80.16;97901.03;5052709;28;20376;-68
2021/12/06 09:25:34;;;;;;;44.90;18.58;;;;;;;0.32;80.00;97893.72;5052286;28;20047;-67
2021/12/06 09:28:00;;;;;;;32.45;16.38;;;;;;;0.35;80.36;97899.47;5051586;28;20020;-68
2021/12/06 09:30:29;;;;;;;73.95;28.38;;;;;;;0.33;79.61;97901.59;5050089;28;20412;-68
2021/12/06 09:32:58;;;;;;;45.17;20.33;;;;;;;0.31;80.26;97903.72;5052279;28;20099;-68
2021/12/06 09:35:27;;;;;;;37.13;18.27;;;;;;;0.27;80.12;97914.16;5048212;28;20032;-68
2021/12/06 09:37:56;;;;;;;36.30;18.38;;;;;;;0.23;79.72;97901.41;5032985;28;20036;-68
2021/12/06 09:40:22;;;;;;;63.08;27.10;;;;;;;0.14;80.06;97906.38;5052181;28;20112;-68
2021/12/06 09:42:48;;;;;;;66.40;25.92;;;;;;;0.07;80.33;97903.03;5050747;28;20033;-68
2021/12/06 09:45:19;;;;;;;63.47;27.00;;;;;;;0.04;80.06;97908.88;5046334;28;20394;-68
2021/12/06 09:47:51;;;;;;;56.38;26.10;;;;;;;0.05;80.05;97899.75;5040318;28;20040;-68
2021/12/06 09:50:24;;;;;;;38.05;20.95;;;;;;;0.09;79.99;97901.69;5050726;28;20079;-68
2021/12/06 09:52:55;;;;;;;45.45;19.85;;;;;;;0.17;80.55;97915.88;5045395;28;20033;-68
2021/12/06 09:55:21;;;;;;;40.65;19.13;;;;;;;0.17;80.39;97914.00;5040372;28;20029;-68
2021/12/06 09:57:47;;;;;;;35.45;18.20;;;;;;;0.25;79.89;97910.09;5047806;28;20033;-68
2021/12/06 10:00:16;;;;;;;41.75;19.27;;;;;;;0.34;80.29;97907.81;5047515;28;20116;-69
2021/12/06 10:02:42;;;;;;;35.60;17.97;;;;;;;0.37;79.96;97905.44;5031532;28;20468;-69
2021/12/06 10:05:08;;;;;;;34.72;18.23;;;;;;;0.39;80.25;97905.19;5032830;28;20064;-68
2021/12/06 10:07:35;;;;;;;32.78;15.60;;;;;;;0.44;80.04;97905.28;5032241;28;20029;-69
2021/12/06 10:10:01;;;;;;;35.25;17.02;;;;;;;0.46;79.64;97905.84;5051430;28;20029;-66
2021/12/06 10:12:28;;;;;;;35.20;17.50;;;;;;;0.50;79.66;97914.28;5052229;28;20056;-66
2021/12/06 10:14:55;;;;;;;35.08;15.50;;;;;;;0.47;79.39;97910.19;5044402;28;20029;-66
2021/12/06 10:17:21;;;;;;;35.97;17.10;;;;;;;0.41;79.61;97898.47;5037327;28;20045;-66
2021/12/06 10:19:47;;;;;;;37.78;18.15;;;;;;;0.39;79.20;97906.03;5042295;28;20025;-67
2021/12/06 10:22:15;;;;;;;37.90;17.83;;;;;;;0.41;79.40;97906.56;5050144;28;20508;-67
2021/12/06 10:24:49;;;;;;;40.53;19.25;;;;;;;0.42;79.03;97897.41;5047719;28;20029;-69
2021/12/06 10:27:15;;;;;;;35.97;18.27;;;;;;;0.46;79.66;97897.75;5033242;28;20030;-67
2021/12/06 10:29:53;;;;;;;35.08;17.33;;;;;;;0.51;79.63;97894.31;5031941;28;20033;-66
2021/12/06 10:32:31;;;;;;;38.25;18.48;;;;;;;0.46;79.10;97907.72;5049925;28;20021;-66
2021/12/06 10:35:00;;;;;;;34.53;17.02;;;;;;;0.50;79.15;97901.63;5051424;28;20052;-66
2021/12/06 10:37:52;;;;;;;35.03;16.90;;;;;;;0.50;79.54;97898.91;5046096;28;20116;-67
2021/12/06 10:40:21;;;;;;;33.47;16.88;;;;;;;0.45;79.16;97906.91;5037529;28;20046;-67
2021/12/06 10:42:52;;;;;;;35.60;16.90;;;;;;;0.39;78.76;97907.88;5040170;28;20029;-65
2021/12/06 10:45:28;;;;;;;35.88;16.50;;;;;;;0.37;79.20;97902.75;5036825;28;20037;-65
2021/12/06 10:48:09;;;;;;;32.72;15.43;;;;;;;0.36;78.84;97902.97;5038034;28;20377;-66
2021/12/06 10:50:38;;;;;;;31.30;16.08;;;;;;;0.35;78.87;97899.47;5031584;28;20501;-66
2021/12/06 10:53:04;;;;;;;31.58;16.00;;;;;;;0.38;79.02;97901.69;5047282;28;20074;-66
2021/12/06 10:55:33;;;;;;;38.75;17.92;;;;;;;0.37;79.00;97910.84;5033119;28;20037;-67
2021/12/06 10:58:10;;;;;;;36.85;18.88;;;;;;;0.39;78.74;97903.31;5037671;28;20087;-68
2021/12/06 11:00:36;;;;;;;33.33;16.00;;;;;;;0.45;79.18;97904.22;5037522;28;20411;-66
2021/12/06 11:03:03;;;;;;;30.25;14.98;;;;;;;0.46;79.21;97903.16;5026998;28;20076;-66
2021/12/06 11:05:32;;;;;;;32.40;16.85;;;;;;;0.46;78.45;97894.22;5035127;28;20488;-66
2021/12/06 11:08:16;;;;;;;33.65;15.77;;;;;;;0.44;78.86;97905.28;5028725;28;20051;-65
2021/12/06 11:10:48;;;;;;;37.33;16.65;;;;;;;0.48;78.44;97901.03;5038890;28;20025;-66
2021/12/06 11:13:18;;;;;;;33.42;16.38;;;;;;;0.46;78.38;97907.72;5036771;28;20425;-66
2021/12/06 11:16:11;;;;;;;30.02;14.93;;;;;;;0.51;78.24;97907.81;5036932;28;20545;-66
2021/12/06 11:18:39;;;;;;;27.63;13.52;;;;;;;0.49;77.84;97905.38;5038098;28;20025;-66
2021/12/06 11:21:21;;;;;;;33.78;14.63;;;;;;;0.44;78.51;97907.97;5038660;28;20044;-65
2021/12/06 11:24:22;;;;;;;31.40;14.75;;;;;;;0.45;78.87;97915.00;5037800;28;20017;-65
2021/12/06 11:27:04;;;;;;;34.30;15.75;;;;;;;0.47;78.25;97912.06;5042933;28;20118;-64
2021/12/06 11:29:41;;;;;;;31.40;14.98;;;;;;;0.53;78.50;97911.09;5040685;28;20085;-65
2021/12/06 11:32:09;;;;;;;31.13;13.90;;;;;;;0.60;77.92;97914.44;5040564;28;20112;-66
2021/12/06 11:34:39;;;;;;;29.92;14.45;;;;;;;0.63;77.82;97907.72;5040203;28;20069;-66
2021/12/06 11:37:15;;;;;;;33.47;14.80;;;;;;;0.58;77.33;97917.41;5033822;28;20033;-65
2021/12/06 11:39:42;;;;;;;29.20;14.85;;;;;;;0.54;77.91;97916.25;5033461;28;20040;-64
2021/12/06 11:42:07;;;;;;;30.58;15.13;;;;;;;0.53;77.67;97920.00;5028307;28;20049;-65
2021/12/06 11:44:35;;;;;;;30.10;14.98;;;;;;;0.56;77.90;97921.41;5030003;28;20053;-64
2021/12/06 11:47:10;;;;;;;29.48;14.65;;;;;;;0.56;78.40;97922.22;5049108;28;20041;-65